Terminal Aerodrome Forecast
Issued by NWS

Home | Current Version | Previous Version | Text Only | Print | Product List | Glossary Off
Versions: 1 2 3 4 5 6 7 8 9 10 11 12 13 14 15

000
FTUS43 KGRB 272300
TAFAUW
TAF
KAUW 272324Z 2800/2824 28010KT P6SM BKN018
     FM280200 29010KT P6SM SCT020
     FM280300 27005KT P6SM SKC
     FM281100 29008KT P6SM SCT035 BKN070
     FM282000 30006KT P6SM FEW070=

USA.gov is the U.S. government's official web portal to all federal, state and local government web resources and services.